Time;durP1;ratioP1;P1;durP2;ratioP2;P2;SDS_P1;SDS_P2;PMS_P1;PMS_P2;Temp;Humidity;BMP_temperature;BMP_pressure;BME280_temperature;BME280_humidity;BME280_pressure;Samples;Min_cycle;Max_cycle;Signal;HPM_P1;HPM_P2
2022/01/06 00:00:25;;;;;;;30.75;5.28;;;;;;;5.58;100.00;97413.72;5072276;28;20115;-57
2022/01/06 00:02:50;;;;;;;30.33;5.28;;;;;;;5.79;100.00;97416.56;5071370;28;20341;-57
2022/01/06 00:05:15;;;;;;;31.35;5.07;;;;;;;6.20;100.00;97422.19;5071460;28;20181;-57
2022/01/06 00:07:41;;;;;;;32.92;5.30;;;;;;;6.25;100.00;97422.88;5078315;28;20017;-57
2022/01/06 00:10:11;;;;;;;38.20;5.38;;;;;;;5.15;100.00;97422.75;5073714;28;20043;-56
2022/01/06 00:12:47;;;;;;;30.80;5.38;;;;;;;5.26;100.00;97424.19;5076046;28;20619;-57
2022/01/06 00:25:50;;;;;;;28.77;4.63;;;;;;;5.64;100.00;97420.44;5077246;28;20042;-58
2022/01/06 00:28:16;;;;;;;32.08;4.80;;;;;;;6.46;100.00;97429.09;5073701;28;20028;-58
2022/01/06 00:30:42;;;;;;;28.90;5.03;;;;;;;6.19;100.00;97430.84;5071772;28;20037;-57
2022/01/06 00:33:08;;;;;;;31.25;5.32;;;;;;;6.08;100.00;97419.97;5078632;28;20060;-57
2022/01/06 00:35:33;;;;;;;33.13;5.32;;;;;;;5.91;100.00;97434.28;5074325;28;20673;-58
2022/01/06 00:37:58;;;;;;;30.52;5.57;;;;;;;5.78;100.00;97431.22;5074304;28;20638;-57
2022/01/06 00:40:24;;;;;;;31.13;5.93;;;;;;;6.35;100.00;97429.44;5076510;28;20024;-57
2022/01/06 00:42:49;;;;;;;27.67;5.15;;;;;;;6.04;100.00;97434.78;5075154;28;20030;-58
2022/01/06 00:45:15;;;;;;;33.92;5.90;;;;;;;6.90;100.00;97431.06;5074966;28;20110;-58
2022/01/06 00:47:40;;;;;;;31.38;6.15;;;;;;;5.64;100.00;97440.31;5072049;28;20047;-58
2022/01/06 00:50:06;;;;;;;25.55;6.13;;;;;;;5.93;100.00;97437.66;5073172;27;20028;-62
2022/01/06 00:52:33;;;;;;;36.53;6.47;;;;;;;6.09;100.00;97437.22;5072331;28;20062;-58
2022/01/06 00:54:58;;;;;;;36.08;5.88;;;;;;;5.83;100.00;97441.44;5076700;28;20027;-58
2022/01/06 00:57:23;;;;;;;36.83;7.65;;;;;;;6.64;100.00;97448.34;5078292;28;20048;-58
2022/01/06 00:59:49;;;;;;;36.85;6.43;;;;;;;5.87;100.00;97447.38;5073815;28;20054;-58
2022/01/06 01:02:14;;;;;;;32.35;5.97;;;;;;;6.41;100.00;97453.44;5076518;28;20089;-59
2022/01/06 01:04:40;;;;;;;29.88;5.50;;;;;;;5.95;100.00;97454.00;5074933;28;20036;-57
2022/01/06 01:07:05;;;;;;;29.40;5.80;;;;;;;5.98;100.00;97455.69;5070989;28;20067;-58
2022/01/06 01:09:31;;;;;;;34.58;7.88;;;;;;;5.96;100.00;97463.50;5073827;28;20676;-58
2022/01/06 01:12:01;;;;;;;33.00;5.82;;;;;;;6.01;100.00;97459.91;5089407;27;20043;-60
2022/01/06 01:14:29;;;;;;;36.05;6.25;;;;;;;5.47;100.00;97464.94;5072825;28;20406;-60
2022/01/06 01:16:58;;;;;;;41.05;10.05;;;;;;;6.15;100.00;97465.50;5072662;28;20047;-58
2022/01/06 01:19:25;;;;;;;43.42;10.00;;;;;;;6.17;100.00;97464.53;5077451;28;20028;-58
2022/01/06 01:21:53;;;;;;;39.97;6.88;;;;;;;5.50;100.00;97469.19;5074482;28;20767;-57
2022/01/06 01:24:19;;;;;;;36.78;6.60;;;;;;;5.72;100.00;97471.97;5072024;28;20024;-57
2022/01/06 01:26:45;;;;;;;33.33;5.93;;;;;;;5.66;100.00;97477.31;5074770;28;20032;-57
2022/01/06 01:29:15;;;;;;;28.73;5.50;;;;;;;5.92;100.00;97485.16;5075561;28;20192;-58
2022/01/06 01:31:50;;;;;;;28.33;5.35;;;;;;;6.90;100.00;97488.94;5073252;28;20113;-57
2022/01/06 01:34:22;;;;;;;29.10;5.88;;;;;;;6.12;100.00;97488.91;5072428;28;20024;-57
2022/01/06 01:36:48;;;;;;;37.15;6.20;;;;;;;5.57;100.00;97486.22;5074836;28;20059;-57
2022/01/06 01:39:13;;;;;;;32.92;5.60;;;;;;;6.09;100.00;97494.19;5071697;28;20398;-56
2022/01/06 01:41:39;;;;;;;32.83;5.85;;;;;;;5.87;100.00;97489.63;5086977;27;20413;-57
2022/01/06 01:44:11;;;;;;;32.35;5.72;;;;;;;6.54;100.00;97485.81;5072159;28;20028;-57
2022/01/06 01:46:43;;;;;;;37.67;6.38;;;;;;;5.72;100.00;97492.69;5076562;28;20031;-58
2022/01/06 01:51:33;;;;;;;27.92;4.50;;;;;;;6.43;100.00;97493.94;5074228;28;20139;-57
2022/01/06 01:54:00;;;;;;;35.90;5.95;;;;;;;6.46;100.00;97493.00;5074926;28;20131;-56
2022/01/06 01:56:25;;;;;;;32.13;5.70;;;;;;;6.07;100.00;97488.22;5072810;28;20046;-57
2022/01/06 01:58:51;;;;;;;29.35;5.28;;;;;;;6.98;100.00;97496.44;5072585;28;20023;-57
2022/01/06 02:01:16;;;;;;;37.00;6.45;;;;;;;5.70;100.00;97502.25;5070154;28;20837;-56
2022/01/06 02:03:41;;;;;;;30.80;5.57;;;;;;;5.60;100.00;97497.31;5074577;28;20032;-58
2022/01/06 02:06:07;;;;;;;32.47;5.78;;;;;;;6.07;100.00;97504.59;5073890;28;20031;-56
2022/01/06 02:08:33;;;;;;;32.45;5.90;;;;;;;6.22;100.00;97511.03;5074506;28;20625;-56
2022/01/06 02:10:59;;;;;;;32.72;6.13;;;;;;;6.29;100.00;97504.75;5070164;28;20036;-56
2022/01/06 02:13:28;;;;;;;39.28;6.93;;;;;;;5.73;100.00;97499.53;5073535;28;20512;-56
2022/01/06 02:15:54;;;;;;;36.13;6.10;;;;;;;6.44;100.00;97494.81;5071911;28;20039;-58
2022/01/06 02:18:19;;;;;;;33.92;6.00;;;;;;;6.32;100.00;97503.81;5070992;28;20016;-60
2022/01/06 02:20:45;;;;;;;35.97;6.18;;;;;;;6.16;100.00;97508.63;5074505;28;21104;-58
2022/01/06 02:23:10;;;;;;;35.97;6.40;;;;;;;6.10;100.00;97506.22;5079238;28;20024;-57
2022/01/06 02:25:36;;;;;;;30.15;5.90;;;;;;;6.53;100.00;97516.06;5077867;28;20313;-57
2022/01/06 02:28:03;;;;;;;35.90;6.30;;;;;;;5.76;100.00;97513.25;5089301;27;20047;-59
2022/01/06 02:30:32;;;;;;;32.72;5.72;;;;;;;6.31;100.00;97505.56;5074136;28;20034;-58
2022/01/06 02:33:00;;;;;;;29.02;6.00;;;;;;;6.20;100.00;97510.22;5072104;28;20142;-56
2022/01/06 02:35:25;;;;;;;27.73;5.18;;;;;;;6.92;100.00;97520.00;5070073;28;20033;-57
2022/01/06 02:37:51;;;;;;;33.38;6.40;;;;;;;5.58;100.00;97509.44;5071147;28;20024;-58
2022/01/06 02:40:21;;;;;;;31.13;5.63;;;;;;;6.05;100.00;97518.47;5072339;28;20056;-58
2022/01/06 02:42:53;;;;;;;33.60;5.38;;;;;;;6.04;100.00;97516.78;5074597;28;20031;-57
2022/01/06 02:45:19;;;;;;;28.77;5.45;;;;;;;6.28;100.00;97516.00;5074337;28;20029;-59
2022/01/06 02:47:46;;;;;;;32.25;6.22;;;;;;;5.64;100.00;97512.75;5070800;28;20035;-58
2022/01/06 02:50:13;;;;;;;31.70;6.07;;;;;;;5.56;100.00;97503.47;5076081;28;20047;-56
2022/01/06 02:52:39;;;;;;;31.90;6.20;;;;;;;5.85;100.00;97522.47;5075505;28;20077;-57
2022/01/06 02:55:06;;;;;;;29.27;5.68;;;;;;;5.36;100.00;97523.88;5076329;28;20406;-56
2022/01/06 02:57:31;;;;;;;38.53;6.88;;;;;;;5.02;100.00;97522.22;5060754;28;20024;-56
2022/01/06 02:59:56;;;;;;;33.58;6.70;;;;;;;5.88;100.00;97519.81;5074086;28;20058;-56
2022/01/06 03:02:22;;;;;;;38.35;6.50;;;;;;;4.98;100.00;97523.16;5073176;28;20713;-57
2022/01/06 03:04:47;;;;;;;36.53;6.63;;;;;;;5.35;100.00;97527.38;5089797;27;20377;-57
2022/01/06 03:07:13;;;;;;;28.38;6.30;;;;;;;5.20;100.00;97534.66;5072812;28;20032;-56
2022/01/06 03:09:40;;;;;;;35.65;6.55;;;;;;;5.22;100.00;97535.44;5070571;28;20047;-56
2022/01/06 03:12:17;;;;;;;38.78;6.65;;;;;;;5.78;100.00;97541.66;5071350;28;20766;-56
2022/01/06 03:14:42;;;;;;;34.30;6.47;;;;;;;5.71;100.00;97534.97;5077123;28;20040;-57
2022/01/06 03:17:08;;;;;;;28.33;5.88;;;;;;;6.13;100.00;97547.56;5073987;28;20086;-57
2022/01/06 03:19:33;;;;;;;33.95;6.75;;;;;;;5.58;100.00;97553.41;5086554;28;20496;-58
2022/01/06 03:21:58;;;;;;;36.10;6.80;;;;;;;5.73;100.00;97559.06;5073435;28;20041;-57
2022/01/06 03:24:23;;;;;;;33.45;6.07;;;;;;;5.94;100.00;97563.63;5071151;28;20122;-56
2022/01/06 03:26:49;;;;;;;38.35;6.43;;;;;;;5.89;100.00;97564.66;5072766;28;20039;-57
2022/01/06 03:29:14;;;;;;;32.97;5.90;;;;;;;5.79;100.00;97566.66;5075091;28;20023;-58
2022/01/06 03:31:40;;;;;;;33.20;6.25;;;;;;;5.60;100.00;97566.31;5090612;27;20689;-56
2022/01/06 03:34:05;;;;;;;34.58;6.22;;;;;;;5.40;100.00;97561.69;5075884;28;20085;-56
2022/01/06 03:36:30;;;;;;;32.08;6.00;;;;;;;5.83;100.00;97565.69;5074450;28;20091;-58
2022/01/06 03:38:56;;;;;;;30.45;5.85;;;;;;;5.82;100.00;97555.38;5071017;28;20021;-58
2022/01/06 03:41:21;;;;;;;34.63;5.97;;;;;;;5.53;100.00;97560.47;5073107;28;20043;-57
2022/01/06 03:43:46;;;;;;;30.48;5.30;;;;;;;5.68;100.00;97577.31;5074467;28;20334;-58
2022/01/06 03:46:12;;;;;;;31.00;6.22;;;;;;;4.70;100.00;97567.78;5071600;28;20040;-58
2022/01/06 03:48:37;;;;;;;29.90;4.40;;;;;;;5.90;100.00;97569.78;5079619;28;20051;-57
2022/01/06 03:51:03;;;;;;;24.58;4.40;;;;;;;5.54;100.00;97580.28;5076976;28;20162;-57
2022/01/06 03:53:28;;;;;;;33.42;6.65;;;;;;;5.72;100.00;97575.50;5073869;28;20131;-56
2022/01/06 03:55:53;;;;;;;32.22;6.22;;;;;;;5.24;100.00;97581.97;5074993;28;20059;-56
2022/01/06 03:58:19;;;;;;;32.78;6.20;;;;;;;4.86;100.00;97585.53;5076144;28;20024;-58
2022/01/06 04:00:44;;;;;;;31.65;6.18;;;;;;;4.71;100.00;97597.09;5071157;28;20036;-57
2022/01/06 04:03:09;;;;;;;40.72;6.63;;;;;;;5.39;100.00;97597.06;5079814;27;20016;-57
2022/01/06 04:05:35;;;;;;;31.50;6.03;;;;;;;6.11;100.00;97591.63;5071803;28;20028;-57
2022/01/06 04:08:00;;;;;;;32.33;6.15;;;;;;;5.46;100.00;97597.75;5073509;28;20020;-57
2022/01/06 04:10:26;;;;;;;30.13;6.22;;;;;;;5.54;100.00;97598.38;5076454;28;20525;-57
2022/01/06 04:12:52;;;;;;;34.10;6.15;;;;;;;5.91;100.00;97602.53;5074572;28;20394;-56
2022/01/06 04:15:17;;;;;;;30.75;5.60;;;;;;;4.87;100.00;97605.28;5078840;28;20031;-56
2022/01/06 04:17:43;;;;;;;30.05;5.78;;;;;;;5.00;100.00;97611.88;5077502;28;20027;-57
2022/01/06 04:20:10;;;;;;;35.17;5.65;;;;;;;5.28;100.00;97624.09;5075285;28;20028;-56
2022/01/06 04:22:36;;;;;;;33.65;6.40;;;;;;;5.47;100.00;97621.88;5072513;28;20066;-56
2022/01/06 04:25:03;;;;;;;37.38;6.03;;;;;;;5.55;100.00;97622.50;5072271;28;20041;-56
2022/01/06 04:27:28;;;;;;;26.90;5.18;;;;;;;5.28;100.00;97621.53;5071532;28;20536;-56
2022/01/06 04:29:53;;;;;;;33.67;6.15;;;;;;;4.93;100.00;97623.25;5074543;28;20015;-56
2022/01/06 04:32:19;;;;;;;33.72;6.18;;;;;;;5.02;100.00;97628.19;5073353;28;20085;-58
2022/01/06 04:34:44;;;;;;;28.23;5.80;;;;;;;5.28;100.00;97624.09;5081342;28;20634;-56
2022/01/06 04:37:09;;;;;;;29.88;5.45;;;;;;;5.51;100.00;97636.41;5071620;28;20036;-58
2022/01/06 04:39:35;;;;;;;34.47;6.68;;;;;;;4.66;100.00;97633.34;5068559;28;20032;-57
2022/01/06 04:42:00;;;;;;;37.08;7.00;;;;;;;4.80;100.00;97639.03;5088606;27;20439;-59
2022/01/06 04:44:25;;;;;;;33.45;6.20;;;;;;;5.09;100.00;97634.91;5077246;28;20748;-57
2022/01/06 04:46:51;;;;;;;37.95;6.68;;;;;;;4.69;100.00;97646.19;5074828;28;20418;-57
2022/01/06 04:49:16;;;;;;;31.35;5.68;;;;;;;5.13;100.00;97636.53;5075368;28;20024;-57
2022/01/06 04:51:41;;;;;;;31.42;5.65;;;;;;;5.98;100.00;97637.75;5075289;28;20094;-58
2022/01/06 04:54:07;;;;;;;37.15;6.55;;;;;;;5.20;100.00;97647.53;5075791;28;20083;-57
2022/01/06 04:56:36;;;;;;;33.33;6.20;;;;;;;5.68;100.00;97646.31;5074017;28;20039;-58
2022/01/06 04:59:06;;;;;;;38.42;6.82;;;;;;;5.21;100.00;97644.94;5069791;28;20535;-57
2022/01/06 05:01:31;;;;;;;29.27;6.10;;;;;;;5.06;100.00;97640.16;5074321;28;20036;-56
2022/01/06 05:03:56;;;;;;;27.90;5.53;;;;;;;4.98;100.00;97648.09;5073961;28;20031;-57
2022/01/06 05:06:22;;;;;;;39.85;6.75;;;;;;;5.38;100.00;97652.25;5078529;28;20131;-57
2022/01/06 05:08:47;;;;;;;35.03;6.03;;;;;;;5.13;100.00;97646.88;5073696;28;20494;-57
2022/01/06 05:11:13;;;;;;;33.80;5.60;;;;;;;5.32;100.00;97662.75;5076746;28;20045;-58
2022/01/06 05:13:38;;;;;;;35.30;5.70;;;;;;;4.95;100.00;97662.81;5074562;28;20339;-57
2022/01/06 05:16:04;;;;;;;30.13;5.30;;;;;;;5.15;100.00;97659.75;5075477;28;20733;-57
2022/01/06 05:18:29;;;;;;;28.80;5.13;;;;;;;5.01;100.00;97662.66;5080768;28;20419;-59
2022/01/06 05:20:54;;;;;;;28.58;5.28;;;;;;;6.63;100.00;97656.56;5074133;28;20039;-57
2022/01/06 05:23:20;;;;;;;34.83;5.82;;;;;;;5.89;100.00;97658.66;5075540;28;20461;-60
2022/01/06 05:25:45;;;;;;;30.05;5.65;;;;;;;4.91;100.00;97667.22;5072749;28;20074;-58
2022/01/06 05:28:11;;;;;;;26.10;5.18;;;;;;;4.90;100.00;97665.50;5069078;27;20024;-57
2022/01/06 05:30:36;;;;;;;36.45;5.50;;;;;;;5.86;100.00;97679.44;5074539;28;20032;-58
2022/01/06 05:33:02;;;;;;;33.58;5.68;;;;;;;4.78;100.00;97677.00;5068503;28;20082;-58
2022/01/06 05:35:27;;;;;;;30.80;5.35;;;;;;;4.64;100.00;97679.03;5070755;28;20128;-58
2022/01/06 05:37:52;;;;;;;26.17;4.63;;;;;;;4.58;100.00;97674.00;5077157;28;20119;-57
2022/01/06 05:40:18;;;;;;;31.23;5.10;;;;;;;5.36;100.00;97684.22;5080413;28;20021;-59
2022/01/06 05:42:43;;;;;;;34.20;5.70;;;;;;;4.89;100.00;97673.28;5072535;28;20119;-57
2022/01/06 05:45:09;;;;;;;27.35;4.93;;;;;;;4.27;100.00;97685.00;5074542;28;20032;-58
2022/01/06 05:47:35;;;;;;;36.38;5.53;;;;;;;4.37;100.00;97683.91;5078947;28;20032;-58
2022/01/06 05:50:01;;;;;;;32.22;5.30;;;;;;;4.22;100.00;97687.66;5073213;28;20119;-60
2022/01/06 05:52:27;;;;;;;33.05;5.43;;;;;;;4.63;100.00;97695.41;5074327;28;20039;-58
2022/01/06 05:54:52;;;;;;;34.85;5.78;;;;;;;4.06;100.00;97699.16;5074132;28;20025;-58
2022/01/06 05:57:19;;;;;;;29.70;4.70;;;;;;;3.97;100.00;97702.81;5074879;28;20033;-56
2022/01/06 05:59:45;;;;;;;31.65;5.35;;;;;;;3.77;100.00;97699.75;5071965;28;20028;-57
2022/01/06 06:02:10;;;;;;;35.15;5.63;;;;;;;3.96;100.00;97695.94;5064792;28;20104;-57
2022/01/06 06:04:35;;;;;;;29.13;4.60;;;;;;;4.26;100.00;97703.94;5073820;28;20458;-57
2022/01/06 06:07:01;;;;;;;24.30;4.40;;;;;;;4.04;100.00;97708.66;5090136;27;20074;-58
2022/01/06 06:09:26;;;;;;;31.38;5.05;;;;;;;3.96;100.00;97716.56;5076382;28;20055;-60
2022/01/06 06:11:51;;;;;;;28.80;4.30;;;;;;;4.16;100.00;97728.25;5074737;28;20578;-56
2022/01/06 06:14:17;;;;;;;27.75;4.50;;;;;;;4.44;100.00;97729.38;5074433;28;20060;-57
2022/01/06 06:16:42;;;;;;;30.75;4.65;;;;;;;4.51;100.00;97729.25;5077749;28;20089;-56
2022/01/06 06:19:07;;;;;;;27.38;4.70;;;;;;;4.49;100.00;97737.03;5073765;28;20090;-56
2022/01/06 06:21:33;;;;;;;25.55;4.10;;;;;;;4.42;100.00;97744.06;5072523;28;20110;-57
2022/01/06 06:23:58;;;;;;;26.63;4.63;;;;;;;4.32;100.00;97754.59;5076339;28;20111;-57
2022/01/06 06:26:23;;;;;;;26.70;4.82;;;;;;;4.38;100.00;97747.59;5073574;28;20510;-59
2022/01/06 06:28:49;;;;;;;30.65;5.10;;;;;;;4.38;100.00;97747.59;5078332;28;20020;-57
2022/01/06 06:31:14;;;;;;;20.15;4.05;;;;;;;4.26;100.00;97763.31;5076200;27;20045;-58
2022/01/06 06:33:39;;;;;;;27.45;4.60;;;;;;;3.76;100.00;97762.53;5076330;28;20032;-57
2022/01/06 06:36:05;;;;;;;26.83;4.43;;;;;;;4.31;100.00;97758.91;5081280;28;20036;-57
2022/01/06 06:38:30;;;;;;;24.77;4.28;;;;;;;4.02;100.00;97754.31;5076918;28;20874;-60
2022/01/06 06:40:55;;;;;;;27.45;4.38;;;;;;;4.00;100.00;97759.50;5072134;28;20020;-55
2022/01/06 06:43:21;;;;;;;35.80;5.70;;;;;;;4.02;100.00;97762.91;5061563;28;20031;-56
2022/01/06 06:45:47;;;;;;;25.50;4.57;;;;;;;3.67;100.00;97768.69;5075632;28;20040;-58
2022/01/06 06:48:13;;;;;;;24.42;4.80;;;;;;;4.49;100.00;97762.88;5074752;28;20020;-58
2022/01/06 06:50:38;;;;;;;27.05;4.53;;;;;;;4.32;100.00;97765.78;5079044;28;20082;-57
2022/01/06 06:53:03;;;;;;;22.02;3.67;;;;;;;4.19;100.00;97765.19;5074083;28;20028;-59
2022/01/06 06:55:29;;;;;;;24.67;4.55;;;;;;;4.43;100.00;97779.34;5073411;28;20061;-58
2022/01/06 06:57:55;;;;;;;30.77;5.10;;;;;;;4.23;100.00;97786.63;5072258;28;20056;-58
2022/01/06 07:00:21;;;;;;;26.52;4.18;;;;;;;4.69;100.00;97790.88;5077240;28;20489;-57
2022/01/06 07:02:46;;;;;;;26.48;4.70;;;;;;;4.63;100.00;97791.84;5077486;28;20024;-58
2022/01/06 07:05:12;;;;;;;29.85;5.00;;;;;;;4.95;100.00;97794.66;5075070;28;20139;-58
2022/01/06 07:07:37;;;;;;;25.45;4.72;;;;;;;4.81;100.00;97806.09;5077421;28;20102;-57
2022/01/06 07:10:04;;;;;;;24.42;4.63;;;;;;;4.96;100.00;97804.94;5074480;28;20028;-57
2022/01/06 07:12:30;;;;;;;33.00;5.43;;;;;;;4.41;100.00;97813.81;5076482;28;20047;-56
2022/01/06 07:14:57;;;;;;;28.30;5.10;;;;;;;5.21;100.00;97818.16;5094631;27;20028;-57
2022/01/06 07:17:23;;;;;;;26.85;4.95;;;;;;;5.34;100.00;97825.66;5075537;28;20038;-57
2022/01/06 07:19:48;;;;;;;25.40;4.28;;;;;;;5.39;100.00;97831.59;5077602;28;20028;-57
2022/01/06 07:22:13;;;;;;;26.42;4.28;;;;;;;4.82;100.00;97823.31;5074562;28;20040;-58
2022/01/06 07:24:39;;;;;;;25.92;5.32;;;;;;;4.44;100.00;97827.50;5075526;28;20473;-57
2022/01/06 07:27:04;;;;;;;27.77;4.90;;;;;;;4.71;100.00;97829.59;5077927;28;20668;-59
2022/01/06 07:29:29;;;;;;;22.75;4.45;;;;;;;4.66;100.00;97831.44;5076205;28;20025;-59
2022/01/06 07:31:55;;;;;;;33.75;5.85;;;;;;;4.81;100.00;97836.28;5073681;28;20608;-57
2022/01/06 07:34:20;;;;;;;30.17;5.43;;;;;;;4.95;100.00;97838.59;5072708;28;20068;-57
2022/01/06 07:36:46;;;;;;;32.70;6.35;;;;;;;4.82;100.00;97838.81;5077177;28;20043;-58
2022/01/06 07:39:11;;;;;;;30.15;5.28;;;;;;;4.86;100.00;97849.13;5076818;28;20480;-56
2022/01/06 07:41:36;;;;;;;29.48;6.20;;;;;;;4.70;100.00;97843.41;5075492;28;20109;-57
2022/01/06 07:44:06;;;;;;;28.02;5.90;;;;;;;4.64;100.00;97849.53;5072126;28;20024;-58
2022/01/06 07:46:31;;;;;;;27.77;5.53;;;;;;;4.41;100.00;97848.25;5070372;28;20036;-58
2022/01/06 07:48:57;;;;;;;30.85;5.60;;;;;;;4.95;100.00;97856.69;5075068;28;20035;-60
2022/01/06 07:51:24;;;;;;;28.27;5.80;;;;;;;4.91;100.00;97861.06;5077556;28;20028;-59
2022/01/06 07:53:50;;;;;;;34.28;6.18;;;;;;;4.82;100.00;97864.66;5077445;28;20506;-57
2022/01/06 07:56:15;;;;;;;28.02;5.30;;;;;;;5.32;100.00;97864.47;5072064;28;20069;-59
2022/01/06 07:58:41;;;;;;;31.27;5.57;;;;;;;5.34;100.00;97867.03;5072600;28;20047;-57
2022/01/06 08:01:06;;;;;;;25.55;5.00;;;;;;;5.37;100.00;97869.56;5080118;28;20123;-58
2022/01/06 08:03:31;;;;;;;37.53;6.63;;;;;;;4.98;100.00;97874.69;5069678;28;20465;-56
2022/01/06 08:05:57;;;;;;;29.45;5.50;;;;;;;5.10;100.00;97878.78;5071833;28;20675;-56
2022/01/06 08:08:22;;;;;;;33.78;5.78;;;;;;;5.35;100.00;97881.69;5080998;28;20043;-56
2022/01/06 08:10:48;;;;;;;31.40;6.03;;;;;;;5.29;100.00;97887.81;5076593;28;20036;-56
2022/01/06 08:13:13;;;;;;;36.75;6.00;;;;;;;5.50;100.00;97883.94;5074804;28;20088;-57
2022/01/06 08:15:38;;;;;;;31.25;6.28;;;;;;;5.03;100.00;97890.97;5077981;28;20028;-56
2022/01/06 08:18:04;;;;;;;26.20;5.68;;;;;;;4.76;100.00;97890.66;5096118;27;20122;-56
2022/01/06 08:20:29;;;;;;;27.25;5.53;;;;;;;5.18;100.00;97903.59;5076820;28;20033;-58
2022/01/06 08:22:54;;;;;;;29.45;5.55;;;;;;;5.43;100.00;97900.47;5072721;28;20510;-56
2022/01/06 08:25:20;;;;;;;27.70;5.57;;;;;;;5.05;100.00;97903.84;5072678;28;20020;-58
2022/01/06 08:27:46;;;;;;;30.50;5.43;;;;;;;5.41;100.00;97904.81;5075794;28;20020;-55
2022/01/06 08:30:11;;;;;;;28.38;5.55;;;;;;;5.38;100.00;97910.91;5076192;28;20020;-57
2022/01/06 08:32:37;;;;;;;23.20;5.03;;;;;;;5.35;100.00;97908.41;5076418;28;20032;-58
2022/01/06 08:35:03;;;;;;;29.35;5.40;;;;;;;5.27;100.00;97912.03;5076413;28;20024;-55
2022/01/06 08:37:28;;;;;;;28.73;5.63;;;;;;;5.70;100.00;97916.28;5077528;28;20103;-59
2022/01/06 08:39:53;;;;;;;24.85;5.05;;;;;;;6.62;100.00;97913.19;5080703;28;20029;-56
2022/01/06 08:42:19;;;;;;;30.63;5.90;;;;;;;5.62;100.00;97913.00;5081612;28;20040;-57
2022/01/06 08:44:44;;;;;;;31.67;5.90;;;;;;;5.74;100.00;97920.47;5079683;28;20106;-57
2022/01/06 08:47:10;;;;;;;26.88;5.63;;;;;;;5.60;100.00;97926.81;5077160;28;20114;-56
2022/01/06 08:49:36;;;;;;;27.00;5.65;;;;;;;5.75;100.00;97928.22;5079157;28;20035;-56
2022/01/06 08:52:02;;;;;;;31.05;6.32;;;;;;;5.15;100.00;97924.31;5076268;28;20036;-56
2022/01/06 08:54:27;;;;;;;35.50;6.75;;;;;;;5.27;100.00;97937.88;5076883;28;20058;-56
2022/01/06 08:56:52;;;;;;;37.42;6.68;;;;;;;5.46;100.00;97928.88;5077835;28;20130;-56
2022/01/06 08:59:18;;;;;;;33.53;5.97;;;;;;;5.24;100.00;97930.19;5080352;28;20028;-57
2022/01/06 09:01:43;;;;;;;35.80;6.60;;;;;;;5.41;100.00;97941.03;5077626;28;20183;-57
2022/01/06 09:04:08;;;;;;;27.88;5.68;;;;;;;5.88;100.00;97949.50;5079715;28;20030;-56
2022/01/06 09:06:34;;;;;;;36.15;6.60;;;;;;;5.20;100.00;97934.56;5082127;28;20050;-59
2022/01/06 09:08:59;;;;;;;29.55;5.70;;;;;;;5.86;100.00;97943.47;5080414;28;20015;-57
2022/01/06 09:11:24;;;;;;;29.38;5.75;;;;;;;6.14;100.00;97938.56;5077996;28;20547;-57
2022/01/06 09:13:50;;;;;;;32.78;6.00;;;;;;;5.66;100.00;97943.97;5075486;28;20528;-58
2022/01/06 09:16:15;;;;;;;28.95;5.95;;;;;;;6.43;100.00;97952.50;5074345;28;20035;-57
2022/01/06 09:18:41;;;;;;;30.83;6.03;;;;;;;5.45;100.00;97947.84;5073845;28;20032;-58
2022/01/06 09:21:07;;;;;;;31.55;5.78;;;;;;;5.70;100.00;97958.53;5078590;28;20055;-58
2022/01/06 09:23:34;;;;;;;33.47;6.18;;;;;;;5.65;100.00;97955.19;5080031;28;20642;-57
2022/01/06 09:25:59;;;;;;;31.92;5.78;;;;;;;5.68;100.00;97959.41;5095254;27;20482;-58
2022/01/06 09:28:26;;;;;;;28.17;5.88;;;;;;;5.70;100.00;97958.53;5073581;28;20536;-58
2022/01/06 09:30:52;;;;;;;23.65;4.57;;;;;;;6.43;100.00;97956.84;5078057;28;20044;-59
2022/01/06 09:33:20;;;;;;;35.80;6.22;;;;;;;6.08;100.00;97968.91;5077362;28;20073;-59
2022/01/06 09:35:46;;;;;;;24.95;4.85;;;;;;;6.33;100.00;97975.22;5080760;28;20070;-58
2022/01/06 09:38:13;;;;;;;34.35;6.47;;;;;;;5.35;100.00;97974.81;5090708;27;20474;-57
2022/01/06 09:40:43;;;;;;;31.92;6.07;;;;;;;5.75;100.00;97982.56;5073586;28;20102;-60
2022/01/06 09:43:12;;;;;;;32.60;5.47;;;;;;;6.11;100.00;97981.78;5075784;28;20020;-58
2022/01/06 09:45:38;;;;;;;29.60;5.85;;;;;;;6.18;100.00;97981.63;5076692;28;20038;-57
2022/01/06 09:48:05;;;;;;;26.98;5.80;;;;;;;5.72;100.00;97976.59;5078435;28;20136;-59
2022/01/06 09:50:31;;;;;;;27.83;4.80;;;;;;;6.04;100.00;97983.66;5083019;28;20812;-58
2022/01/06 09:52:56;;;;;;;21.85;3.83;;;;;;;6.82;100.00;97993.00;5082525;28;20031;-60
2022/01/06 09:55:23;;;;;;;21.25;4.40;;;;;;;6.57;100.00;97988.44;5079689;28;20371;-58
2022/01/06 09:57:55;;;;;;;25.48;4.88;;;;;;;5.70;100.00;97989.56;5078448;28;20093;-57
2022/01/06 10:00:21;;;;;;;29.13;5.32;;;;;;;6.74;100.00;97994.03;5076549;28;20031;-57
2022/01/06 10:02:53;;;;;;;30.20;5.90;;;;;;;5.69;100.00;97989.59;5076354;28;20017;-57
2022/01/06 10:05:18;;;;;;;27.30;5.23;;;;;;;6.55;100.00;97988.47;5076416;28;20482;-59
2022/01/06 10:07:44;;;;;;;24.33;4.57;;;;;;;7.18;100.00;97990.31;5079342;28;20024;-57
2022/01/06 10:10:13;;;;;;;32.75;5.50;;;;;;;6.74;100.00;97999.22;5077707;28;20027;-59
2022/01/06 10:12:40;;;;;;;24.40;4.97;;;;;;;6.56;100.00;98002.28;5075665;28;20108;-59
2022/01/06 10:15:17;;;;;;;21.45;4.72;;;;;;;7.87;100.00;98011.72;5073493;28;20023;-57
2022/01/06 10:17:43;;;;;;;26.63;5.18;;;;;;;6.63;100.00;98009.03;5073497;28;20112;-58
2022/01/06 10:20:17;;;;;;;26.80;4.70;;;;;;;6.94;100.00;98006.50;5070932;28;20419;-57
2022/01/06 10:22:48;;;;;;;27.98;4.72;;;;;;;6.60;100.00;98006.53;5078089;28;20054;-58
2022/01/06 10:25:15;;;;;;;23.35;4.32;;;;;;;7.72;100.00;97997.44;5070387;28;20118;-59
2022/01/06 10:27:41;;;;;;;24.73;4.78;;;;;;;6.99;100.00;98001.19;5075330;28;20032;-56
2022/01/06 10:30:08;;;;;;;31.55;5.20;;;;;;;7.13;100.00;98004.28;5077558;28;20027;-55
2022/01/06 10:32:34;;;;;;;25.77;5.03;;;;;;;7.40;100.00;98007.00;5076409;28;20035;-57
2022/01/06 10:35:02;;;;;;;26.90;5.07;;;;;;;6.67;100.00;98009.78;5083358;28;20028;-57
2022/01/06 10:37:31;;;;;;;20.70;3.78;;;;;;;6.42;100.00;98014.75;5072562;28;20076;-57
2022/01/06 10:40:08;;;;;;;23.05;4.03;;;;;;;6.07;100.00;98019.84;5074720;28;20021;-57
2022/01/06 10:42:36;;;;;;;29.02;4.25;;;;;;;6.24;100.00;98021.22;5075316;28;20041;-56
2022/01/06 10:45:14;;;;;;;25.95;4.35;;;;;;;5.40;100.00;98022.09;5076965;28;20020;-57
2022/01/06 10:47:42;;;;;;;20.08;3.50;;;;;;;5.31;100.00;98023.16;5075252;28;20119;-57
2022/01/06 10:50:12;;;;;;;23.98;3.90;;;;;;;5.74;100.00;98031.78;5082551;28;20044;-56
2022/01/06 10:52:39;;;;;;;23.75;4.25;;;;;;;5.61;100.00;98031.19;5071389;28;20103;-56
2022/01/06 10:55:21;;;;;;;26.10;4.40;;;;;;;6.00;100.00;98032.97;5075665;28;20032;-56
2022/01/06 10:58:07;;;;;;;30.10;4.40;;;;;;;5.69;100.00;98037.03;5074710;28;20366;-56
2022/01/06 11:00:40;;;;;;;25.95;4.40;;;;;;;5.07;100.00;98041.69;5076583;28;20067;-59
2022/01/06 11:03:13;;;;;;;26.52;4.32;;;;;;;5.47;100.00;98034.03;5091501;27;20548;-57
2022/01/06 11:05:50;;;;;;;24.02;4.20;;;;;;;5.82;100.00;98041.97;5069847;28;20063;-58
2022/01/06 11:08:18;;;;;;;21.33;3.78;;;;;;;5.01;100.00;98046.09;5071246;28;20025;-58
2022/01/06 11:10:49;;;;;;;22.88;4.03;;;;;;;5.37;100.00;98048.03;5076200;28;20842;-58
2022/01/06 11:13:16;;;;;;;36.90;5.78;;;;;;;5.66;100.00;98044.00;5075972;28;20123;-56
2022/01/06 11:15:41;;;;;;;29.38;5.03;;;;;;;6.56;100.00;98048.94;5073937;28;20033;-57
2022/01/06 11:18:07;;;;;;;20.80;3.65;;;;;;;7.73;100.00;98046.72;5071957;28;20028;-57
2022/01/06 11:20:33;;;;;;;21.25;3.63;;;;;;;7.99;100.00;98046.84;5073794;28;20044;-58
2022/01/06 11:23:00;;;;;;;18.95;3.53;;;;;;;10.59;100.00;98064.75;5077418;28;20112;-56
2022/01/06 11:25:36;;;;;;;29.15;4.47;;;;;;;8.53;100.00;98053.00;5071449;28;20066;-56
2022/01/06 11:28:04;;;;;;;21.30;4.05;;;;;;;8.71;98.55;98054.19;5075654;28;20070;-57
2022/01/06 11:30:49;;;;;;;30.40;4.65;;;;;;;10.97;100.00;98057.13;5075446;28;20097;-57
2022/01/06 11:33:15;;;;;;;34.85;4.97;;;;;;;12.03;100.00;98054.28;5069208;28;20107;-56